Time;durP1;ratioP1;P1;durP2;ratioP2;P2;SDS_P1;SDS_P2;PMS_P1;PMS_P2;Temp;Humidity;BMP_temperature;BMP_pressure;BME280_temperature;BME280_humidity;BME280_pressure;Samples;Min_cycle;Max_cycle;Signal;HPM_P1;HPM_P2
2023/07/17 00:02:11;;;;;;;17.13;9.80;;;;;;;18.60;100.00;96930.94;4939243;28;20043;-71
2023/07/17 00:04:37;;;;;;;16.05;9.38;;;;;;;18.68;100.00;96906.66;4911239;29;20043;-70
2023/07/17 00:07:02;;;;;;;17.45;9.98;;;;;;;18.46;100.00;96867.31;4942518;28;20042;-72
2023/07/17 00:09:28;;;;;;;19.05;11.02;;;;;;;18.17;100.00;96850.22;4940790;28;20047;-72
2023/07/17 00:11:53;;;;;;;19.98;12.43;;;;;;;18.03;100.00;96851.19;4927024;29;20090;-70
2023/07/17 00:14:19;;;;;;;18.75;11.25;;;;;;;17.89;100.00;96835.47;4920248;28;20492;-70
2023/07/17 00:16:44;;;;;;;14.55;11.15;;;;;;;18.02;100.00;96857.91;4944160;28;20054;-70
2023/07/17 00:19:09;;;;;;;19.67;11.77;;;;;;;18.16;100.00;96874.38;4938338;28;20051;-70
2023/07/17 00:21:35;;;;;;;22.75;11.45;;;;;;;18.17;100.00;96853.78;4944433;28;20176;-70
2023/07/17 00:24:00;;;;;;;17.08;10.90;;;;;;;18.21;100.00;96851.75;4942286;29;20074;-71
2023/07/17 00:26:28;;;;;;;19.85;10.73;;;;;;;18.51;100.00;96844.66;4938373;28;20039;-70
2023/07/17 00:29:14;;;;;;;21.10;9.98;;;;;;;18.70;100.00;96848.78;4952157;28;20504;-71
2023/07/17 00:31:40;;;;;;;16.75;10.15;;;;;;;18.76;100.00;96858.19;4959758;28;20047;-71
2023/07/17 00:34:05;;;;;;;13.88;9.25;;;;;;;18.79;100.00;96870.47;4957781;28;20043;-70
2023/07/17 00:36:31;;;;;;;16.73;8.82;;;;;;;18.86;100.00;96878.72;4964134;28;20137;-71
2023/07/17 00:38:56;;;;;;;13.30;8.80;;;;;;;18.75;100.00;96889.94;4963548;28;20082;-71
2023/07/17 00:41:21;;;;;;;19.10;9.07;;;;;;;18.72;100.00;96885.22;4959706;28;20959;-71
2023/07/17 00:43:47;;;;;;;17.60;9.15;;;;;;;18.28;100.00;96892.50;4962533;28;20073;-71
2023/07/17 00:46:12;;;;;;;17.98;9.38;;;;;;;18.24;100.00;96900.84;4956530;28;20038;-71
2023/07/17 00:48:38;;;;;;;14.55;8.77;;;;;;;18.46;100.00;96911.69;4962768;28;20480;-71
2023/07/17 00:51:03;;;;;;;15.70;9.02;;;;;;;18.51;100.00;96902.91;4941492;28;20046;-69
2023/07/17 00:53:29;;;;;;;17.33;9.63;;;;;;;18.33;100.00;96884.50;4943069;28;20039;-69
2023/07/17 00:55:54;;;;;;;16.70;10.00;;;;;;;18.24;100.00;96895.28;4944137;28;20408;-72
2023/07/17 00:58:20;;;;;;;16.50;9.52;;;;;;;18.20;100.00;96882.66;4938619;28;20039;-70
2023/07/17 01:00:46;;;;;;;17.77;10.55;;;;;;;18.19;100.00;96890.19;4943816;28;20043;-70
2023/07/17 01:03:11;;;;;;;18.30;10.18;;;;;;;18.12;100.00;96877.19;4939312;28;20055;-70
2023/07/17 01:05:38;;;;;;;18.55;10.35;;;;;;;17.87;100.00;96871.13;4941949;29;20058;-70
2023/07/17 01:08:03;;;;;;;16.63;10.30;;;;;;;17.89;100.00;96872.28;4939870;28;20400;-70
2023/07/17 01:10:29;;;;;;;19.52;10.18;;;;;;;17.84;100.00;96886.53;4944375;28;20046;-71
2023/07/17 01:12:54;;;;;;;19.88;10.40;;;;;;;18.18;100.00;96904.47;4943575;28;20054;-70
2023/07/17 01:15:20;;;;;;;16.42;9.63;;;;;;;18.28;100.00;96904.34;4940841;28;20579;-70
2023/07/17 01:17:45;;;;;;;15.18;10.20;;;;;;;18.25;100.00;96883.00;4947477;28;20048;-71
2023/07/17 01:20:11;;;;;;;15.57;10.70;;;;;;;18.11;100.00;96886.72;4949775;28;20043;-71
2023/07/17 01:22:55;;;;;;;18.40;11.70;;;;;;;18.01;100.00;96881.28;4947857;28;20043;-69
2023/07/17 01:25:20;;;;;;;22.08;11.20;;;;;;;17.95;100.00;96890.06;4943025;28;20044;-71
2023/07/17 01:27:45;;;;;;;17.88;11.65;;;;;;;17.97;100.00;96895.19;4947359;28;20693;-70
2023/07/17 01:30:11;;;;;;;19.67;11.15;;;;;;;18.05;100.00;96904.19;4955822;28;20045;-70
2023/07/17 01:32:37;;;;;;;17.60;12.57;;;;;;;18.13;100.00;96895.41;4944480;28;20040;-71
2023/07/17 01:35:03;;;;;;;22.15;12.23;;;;;;;18.14;100.00;96883.09;4927935;29;20083;-71
2023/07/17 01:37:29;;;;;;;20.75;10.32;;;;;;;18.24;100.00;96884.22;4928179;29;20047;-70
2023/07/17 01:39:54;;;;;;;16.50;9.45;;;;;;;18.48;100.00;96890.66;4926542;29;20047;-72
2023/07/17 01:42:19;;;;;;;18.42;10.82;;;;;;;18.56;100.00;96899.66;4928513;28;20071;-71
2023/07/17 01:44:45;;;;;;;15.63;9.23;;;;;;;18.35;100.00;96897.94;4946604;28;20110;-71
2023/07/17 01:47:10;;;;;;;15.88;9.68;;;;;;;18.14;100.00;96887.88;4942028;28;20054;-72
2023/07/17 01:49:36;;;;;;;15.70;9.25;;;;;;;18.17;100.00;96883.47;4939441;28;20043;-71
2023/07/17 01:52:01;;;;;;;13.20;8.98;;;;;;;18.21;100.00;96890.56;4927970;29;20039;-70
2023/07/17 01:54:26;;;;;;;17.40;9.38;;;;;;;18.05;100.00;96874.50;4922763;29;20039;-70
2023/07/17 01:56:52;;;;;;;14.32;8.88;;;;;;;18.07;100.00;96882.41;4925365;29;20039;-70
2023/07/17 01:59:17;;;;;;;14.68;9.32;;;;;;;18.11;100.00;96885.91;4924153;28;20055;-71
2023/07/17 02:01:43;;;;;;;19.10;9.02;;;;;;;18.17;100.00;96911.19;4946707;28;20050;-71
2023/07/17 02:04:08;;;;;;;15.60;9.30;;;;;;;18.27;100.00;96929.72;4957849;28;20047;-70
2023/07/17 02:06:33;;;;;;;16.40;9.07;;;;;;;18.48;100.00;96937.81;4957741;28;20137;-70
2023/07/17 02:08:59;;;;;;;13.40;8.48;;;;;;;18.59;100.00;96929.38;4947628;28;20051;-70
2023/07/17 02:11:27;;;;;;;15.48;8.90;;;;;;;18.56;100.00;96929.41;4951634;28;20050;-71
2023/07/17 02:13:53;;;;;;;14.23;8.75;;;;;;;18.71;100.00;96930.81;4966004;28;20051;-71
2023/07/17 02:16:18;;;;;;;14.52;8.38;;;;;;;18.69;100.00;96947.88;4961239;28;20623;-72
2023/07/17 02:18:44;;;;;;;11.48;7.60;;;;;;;18.66;100.00;96950.69;4965375;28;20062;-70
2023/07/17 02:21:09;;;;;;;14.10;8.30;;;;;;;18.80;100.00;96960.81;4959094;28;20133;-71
2023/07/17 02:23:34;;;;;;;13.07;8.25;;;;;;;18.88;100.00;96974.22;4965386;28;20076;-69
2023/07/17 02:26:00;;;;;;;13.32;8.57;;;;;;;18.78;100.00;96989.00;4946809;28;20078;-71
2023/07/17 02:28:25;;;;;;;12.00;7.88;;;;;;;18.79;100.00;96982.22;4959662;28;20101;-70
2023/07/17 02:30:51;;;;;;;10.15;7.57;;;;;;;18.73;100.00;96976.34;4947649;28;20054;-70
2023/07/17 02:33:16;;;;;;;19.42;6.55;;;;;;;18.61;100.00;96965.78;4952695;28;20535;-71
2023/07/17 02:35:41;;;;;;;9.02;5.45;;;;;;;18.28;100.00;96945.16;4964648;28;20038;-69
2023/07/17 02:38:07;;;;;;;11.38;5.32;;;;;;;18.49;100.00;96938.59;4956738;28;20385;-68
2023/07/17 02:40:32;;;;;;;14.80;5.80;;;;;;;18.57;100.00;96953.19;4945393;28;20043;-70
2023/07/17 02:42:58;;;;;;;9.02;4.47;;;;;;;18.52;100.00;96951.63;4945576;28;20081;-71
2023/07/17 02:45:23;;;;;;;11.90;5.93;;;;;;;18.47;100.00;96965.94;4940732;29;20567;-71
2023/07/17 02:47:48;;;;;;;13.07;5.30;;;;;;;18.38;100.00;96955.34;4945444;29;20046;-69
2023/07/17 02:50:14;;;;;;;9.82;5.07;;;;;;;18.42;100.00;96949.75;4927063;29;20075;-70
2023/07/17 02:52:40;;;;;;;12.05;4.97;;;;;;;18.62;100.00;96949.91;4926766;29;20067;-70
2023/07/17 02:55:07;;;;;;;7.28;4.47;;;;;;;18.62;100.00;96958.25;4921444;29;20044;-71
2023/07/17 02:57:36;;;;;;;8.55;4.65;;;;;;;18.66;100.00;96948.69;4909441;29;20057;-71
2023/07/17 03:00:11;;;;;;;8.52;4.20;;;;;;;18.71;100.00;96962.13;4939313;29;20043;-72
2023/07/17 03:02:39;;;;;;;6.10;4.28;;;;;;;18.58;100.00;96957.50;4946081;29;20054;-71
2023/07/17 03:05:08;;;;;;;7.68;4.38;;;;;;;18.57;100.00;96965.06;4923637;29;20046;-71
2023/07/17 03:07:55;;;;;;;9.38;3.80;;;;;;;18.72;100.00;96980.31;4943748;28;20097;-70
2023/07/17 03:10:21;;;;;;;10.75;4.28;;;;;;;18.73;100.00;96997.78;4945720;28;20106;-72
2023/07/17 03:12:47;;;;;;;7.78;4.32;;;;;;;18.49;100.00;96992.09;4968856;28;20043;-72
2023/07/17 03:15:13;;;;;;;10.95;4.82;;;;;;;18.36;100.00;96985.47;4946459;28;20042;-71
2023/07/17 03:17:38;;;;;;;12.45;4.28;;;;;;;18.49;100.00;96986.53;4963736;28;20068;-71
2023/07/17 03:20:06;;;;;;;9.02;4.43;;;;;;;18.58;100.00;96988.03;4959231;28;20504;-71
2023/07/17 03:22:31;;;;;;;6.65;4.28;;;;;;;18.50;100.00;96982.53;4948494;28;20046;-71
2023/07/17 03:24:56;;;;;;;6.72;3.85;;;;;;;18.47;100.00;96999.22;4963919;28;20042;-70
2023/07/17 03:27:22;;;;;;;7.18;4.25;;;;;;;18.45;100.00;96991.31;4959242;28;20066;-71
2023/07/17 03:29:48;;;;;;;12.25;4.45;;;;;;;18.44;100.00;96989.75;4960645;28;20114;-69
2023/07/17 03:32:13;;;;;;;9.40;4.22;;;;;;;18.27;100.00;96988.72;4948339;28;20538;-70
2023/07/17 03:34:39;;;;;;;10.15;4.57;;;;;;;18.24;100.00;97005.38;4947560;28;20055;-70
2023/07/17 03:37:04;;;;;;;8.35;4.40;;;;;;;18.38;100.00;96996.94;4958074;28;20035;-71
2023/07/17 03:39:30;;;;;;;11.68;4.60;;;;;;;18.39;100.00;96986.66;4963532;28;20121;-71
2023/07/17 03:41:55;;;;;;;7.43;4.15;;;;;;;18.46;100.00;96981.81;4963916;28;20382;-70
2023/07/17 03:44:20;;;;;;;10.60;4.00;;;;;;;18.44;100.00;96991.72;4940823;28;20073;-69
2023/07/17 03:46:46;;;;;;;6.75;3.97;;;;;;;18.40;100.00;96990.97;4962577;28;20046;-70
2023/07/17 03:49:12;;;;;;;14.00;4.47;;;;;;;18.51;100.00;96994.41;4953654;28;20480;-69
2023/07/17 03:51:37;;;;;;;7.35;4.30;;;;;;;18.63;100.00;96998.66;4945083;29;20039;-70
2023/07/17 03:54:02;;;;;;;10.48;4.43;;;;;;;18.71;100.00;97000.97;4942167;29;20040;-71
2023/07/17 03:56:28;;;;;;;7.40;4.10;;;;;;;18.80;100.00;96996.88;4923570;29;20039;-69
2023/07/17 03:58:53;;;;;;;10.43;4.25;;;;;;;18.81;100.00;96999.28;4938310;29;20058;-70
2023/07/17 04:01:19;;;;;;;11.75;3.92;;;;;;;18.89;100.00;97000.78;4926838;29;20056;-70
2023/07/17 04:03:45;;;;;;;5.82;4.10;;;;;;;18.83;100.00;97007.97;4936641;29;20047;-70
2023/07/17 04:06:11;;;;;;;9.57;4.38;;;;;;;18.75;100.00;97016.78;4928761;29;20536;-72
2023/07/17 04:08:36;;;;;;;9.48;4.75;;;;;;;18.71;100.00;97011.28;4929923;29;20381;-71
2023/07/17 04:11:02;;;;;;;11.20;4.32;;;;;;;18.73;100.00;97012.44;4929724;28;20042;-71
2023/07/17 04:13:27;;;;;;;5.75;3.72;;;;;;;18.76;100.00;97013.56;4940178;29;20050;-71
2023/07/17 04:15:53;;;;;;;5.20;3.65;;;;;;;18.79;100.00;97012.75;4947892;28;20388;-70
2023/07/17 04:18:18;;;;;;;9.43;4.03;;;;;;;18.82;100.00;97017.53;4958763;28;20043;-69
2023/07/17 04:20:44;;;;;;;6.95;4.07;;;;;;;18.83;100.00;97023.84;4944488;28;20047;-71
2023/07/17 04:23:10;;;;;;;7.22;4.07;;;;;;;18.85;100.00;97022.25;4951785;28;20534;-71
2023/07/17 04:25:39;;;;;;;10.50;4.18;;;;;;;18.82;100.00;97014.75;4963387;28;20121;-71
2023/07/17 04:28:05;;;;;;;7.38;3.75;;;;;;;18.80;100.00;97021.84;4959262;28;20081;-70
2023/07/17 04:30:30;;;;;;;8.77;4.28;;;;;;;18.74;100.00;97027.06;4959983;28;20559;-70
2023/07/17 04:32:56;;;;;;;9.15;3.97;;;;;;;18.75;100.00;97025.88;4955644;28;20118;-71
2023/07/17 04:35:21;;;;;;;9.13;4.03;;;;;;;18.87;100.00;97038.47;4959214;28;20051;-72
2023/07/17 04:37:46;;;;;;;7.30;3.92;;;;;;;18.95;100.00;97039.19;4963000;28;20089;-70
2023/07/17 04:40:12;;;;;;;5.22;3.25;;;;;;;19.10;100.00;97041.38;4959279;28;20503;-69
2023/07/17 04:42:38;;;;;;;6.93;3.55;;;;;;;19.17;100.00;97048.81;4962679;28;20089;-70
2023/07/17 04:45:05;;;;;;;7.70;3.58;;;;;;;19.38;100.00;97055.34;4959809;28;20042;-68
2023/07/17 04:47:31;;;;;;;9.15;3.95;;;;;;;19.18;100.00;97035.75;4962551;28;20047;-72
2023/07/17 04:49:56;;;;;;;8.60;3.97;;;;;;;18.92;100.00;97029.69;4950733;28;20134;-71
2023/07/17 04:52:22;;;;;;;9.73;4.00;;;;;;;19.02;100.00;97036.31;4920387;29;21010;-70
2023/07/17 04:54:47;;;;;;;9.95;4.03;;;;;;;19.08;100.00;97045.75;4944083;29;20053;-69
2023/07/17 04:57:12;;;;;;;9.98;4.00;;;;;;;19.23;100.00;97051.94;4939784;29;20568;-70
2023/07/17 04:59:38;;;;;;;12.45;4.22;;;;;;;19.47;100.00;97053.59;4931543;28;20051;-70
2023/07/17 05:02:04;;;;;;;8.15;3.80;;;;;;;19.55;100.00;97050.72;4919649;29;20044;-70
2023/07/17 05:04:29;;;;;;;8.75;4.03;;;;;;;19.59;100.00;97046.72;4923979;29;20130;-70
2023/07/17 05:06:56;;;;;;;7.90;4.43;;;;;;;19.25;100.00;97047.53;4908118;29;20083;-70
2023/07/17 05:09:21;;;;;;;10.15;3.95;;;;;;;19.29;100.00;97056.59;4902785;29;20402;-70
2023/07/17 05:11:47;;;;;;;9.15;3.95;;;;;;;19.43;100.00;97060.44;4908187;29;20445;-71
2023/07/17 05:14:13;;;;;;;9.05;3.65;;;;;;;19.61;100.00;97060.97;4919402;29;20044;-71
2023/07/17 05:16:39;;;;;;;7.53;3.60;;;;;;;19.77;100.00;97063.16;4923595;29;20374;-72
2023/07/17 05:19:05;;;;;;;6.28;3.60;;;;;;;20.15;100.00;97065.78;4930955;28;20062;-72
2023/07/17 05:21:30;;;;;;;10.93;4.50;;;;;;;20.32;100.00;97074.25;4944002;28;20044;-72
2023/07/17 05:23:56;;;;;;;9.13;3.90;;;;;;;20.43;100.00;97075.63;4962908;28;20065;-72
2023/07/17 05:26:21;;;;;;;8.65;4.30;;;;;;;20.43;100.00;97080.41;4939561;28;20067;-72
2023/07/17 05:28:48;;;;;;;11.27;4.25;;;;;;;20.44;100.00;97085.56;4962978;28;20496;-72
2023/07/17 05:31:13;;;;;;;6.38;3.72;;;;;;;20.44;100.00;97085.56;4967706;28;20038;-70
2023/07/17 05:33:39;;;;;;;10.32;3.85;;;;;;;20.36;100.00;97077.75;4964634;28;20054;-71
2023/07/17 05:36:04;;;;;;;7.45;3.65;;;;;;;20.46;100.00;97085.13;4924187;29;20047;-71
2023/07/17 05:38:29;;;;;;;9.27;3.80;;;;;;;20.70;100.00;97074.81;4945809;28;20488;-71
2023/07/17 05:40:59;;;;;;;5.35;3.38;;;;;;;20.85;100.00;97075.34;4942746;29;20043;-71
2023/07/17 05:43:25;;;;;;;10.50;3.55;;;;;;;20.91;100.00;97087.56;4923464;28;20073;-70
2023/07/17 05:45:50;;;;;;;6.45;3.70;;;;;;;21.07;100.00;97091.63;4962247;28;20051;-72
2023/07/17 05:48:16;;;;;;;8.05;3.50;;;;;;;21.49;100.00;97087.25;4941640;28;20439;-72
2023/07/17 05:50:42;;;;;;;10.93;3.85;;;;;;;22.19;100.00;97087.31;4956564;28;20047;-72
2023/07/17 05:53:07;;;;;;;6.32;3.08;;;;;;;24.26;100.00;97080.06;4956808;28;20043;-71
2023/07/17 05:55:33;;;;;;;9.68;3.10;;;;;;;25.80;83.73;97084.34;4943750;28;20454;-70
2023/07/17 05:57:58;;;;;;;4.80;2.50;;;;;;;26.80;78.12;97076.78;4963044;28;20043;-71
2023/07/17 06:00:24;;;;;;;5.88;3.00;;;;;;;25.64;80.69;97086.13;4958010;28;20463;-70
2023/07/17 06:02:49;;;;;;;7.13;2.58;;;;;;;26.27;79.71;97098.16;4964935;28;20047;-72
2023/07/17 06:05:15;;;;;;;5.75;2.75;;;;;;;28.52;68.86;97099.91;4960583;28;20047;-70
2023/07/17 06:07:40;;;;;;;7.50;2.50;;;;;;;29.22;59.58;97110.13;4964726;28;20046;-69
2023/07/17 06:10:07;;;;;;;7.25;2.40;;;;;;;28.84;60.44;97106.00;4940160;28;20043;-68
2023/07/17 06:12:33;;;;;;;5.68;2.47;;;;;;;28.92;60.41;97112.06;4948282;28;20045;-72
2023/07/17 06:14:59;;;;;;;6.57;2.65;;;;;;;29.84;57.59;97119.78;4965725;28;20039;-71
2023/07/17 06:17:24;;;;;;;5.38;2.25;;;;;;;29.58;55.47;97122.34;4961846;28;20097;-71
2023/07/17 06:19:49;;;;;;;7.50;2.30;;;;;;;29.99;54.57;97119.00;4965496;28;20046;-71
2023/07/17 06:22:15;;;;;;;7.03;2.25;;;;;;;28.58;57.63;97128.25;4961280;28;20042;-72
2023/07/17 06:24:41;;;;;;;8.38;2.42;;;;;;;27.47;61.85;97125.69;4971489;28;20039;-71
2023/07/17 06:27:06;;;;;;;5.82;2.20;;;;;;;27.11;62.27;97123.66;4949957;28;20388;-72
2023/07/17 06:29:32;;;;;;;7.47;2.50;;;;;;;26.21;68.72;97108.41;4970062;28;20039;-71
2023/07/17 06:31:57;;;;;;;6.65;2.65;;;;;;;26.61;65.69;97101.22;4979393;28;20078;-71
2023/07/17 06:34:23;;;;;;;6.18;2.22;;;;;;;27.22;61.14;97095.84;4982542;28;20141;-71
2023/07/17 06:36:49;;;;;;;6.90;2.15;;;;;;;28.96;57.33;97107.03;4985530;28;20042;-71
2023/07/17 06:39:15;;;;;;;4.05;1.85;;;;;;;30.30;51.51;97110.78;4980529;28;20066;-70
2023/07/17 06:41:40;;;;;;;6.18;2.35;;;;;;;31.43;46.75;97122.88;4985679;28;20475;-71
2023/07/17 06:44:06;;;;;;;7.18;2.22;;;;;;;32.11;43.12;97138.53;4962108;28;20034;-70
2023/07/17 06:46:31;;;;;;;4.57;2.08;;;;;;;32.01;44.09;97125.78;4984897;28;20073;-71
2023/07/17 06:48:56;;;;;;;6.00;2.15;;;;;;;32.57;42.51;97145.31;4983907;28;20046;-71
2023/07/17 06:51:22;;;;;;;4.85;1.67;;;;;;;32.58;42.30;97144.84;4961511;28;20137;-71
2023/07/17 06:53:48;;;;;;;4.65;1.88;;;;;;;32.33;42.13;97146.41;4964692;28;20050;-71
2023/07/17 06:56:13;;;;;;;6.38;2.20;;;;;;;32.89;39.74;97153.78;4961072;28;20473;-69
2023/07/17 06:58:39;;;;;;;9.27;2.13;;;;;;;33.14;38.37;97157.81;4962717;28;20059;-71
2023/07/17 07:01:05;;;;;;;7.78;2.20;;;;;;;31.74;41.01;97153.31;4924193;29;20039;-71
2023/07/17 07:03:31;;;;;;;5.38;1.83;;;;;;;32.68;39.44;97138.97;4944933;29;20122;-71
2023/07/17 07:05:59;;;;;;;7.35;1.90;;;;;;;32.32;39.57;97135.59;4928561;29;20117;-71
2023/07/17 07:08:26;;;;;;;4.22;2.10;;;;;;;32.06;39.91;97138.47;4929316;29;20039;-71
2023/07/17 07:10:53;;;;;;;5.00;2.30;;;;;;;31.57;40.49;97133.34;4951320;29;20035;-71
2023/07/17 07:13:20;;;;;;;6.75;2.22;;;;;;;31.86;41.77;97128.75;4941422;28;20043;-70
2023/07/17 07:15:45;;;;;;;6.85;2.72;;;;;;;32.82;38.19;97132.34;4945296;29;20058;-70
2023/07/17 07:18:10;;;;;;;5.97;1.85;;;;;;;32.68;38.10;97145.44;4941809;28;20051;-70
2023/07/17 07:20:36;;;;;;;5.03;1.75;;;;;;;33.11;37.79;97142.53;4928418;29;20130;-70
2023/07/17 07:23:01;;;;;;;4.35;1.83;;;;;;;33.78;37.26;97143.31;4953267;28;20035;-70
2023/07/17 07:25:27;;;;;;;7.88;2.10;;;;;;;34.07;36.43;97153.47;4943163;28;20193;-70
2023/07/17 07:27:52;;;;;;;7.05;2.10;;;;;;;32.96;38.55;97156.91;4956077;28;20051;-71
2023/07/17 07:30:18;;;;;;;4.97;1.95;;;;;;;33.41;37.18;97147.84;4952021;28;20043;-70
2023/07/17 07:32:43;;;;;;;5.43;1.80;;;;;;;32.22;38.92;97143.50;4955293;28;20043;-70
2023/07/17 07:35:08;;;;;;;3.85;1.52;;;;;;;31.74;39.94;97141.22;4942381;28;20265;-70
2023/07/17 07:37:34;;;;;;;6.88;4.07;;;;;;;31.77;39.19;97134.56;4945601;28;20638;-71
2023/07/17 07:39:59;;;;;;;5.90;2.25;;;;;;;32.69;37.09;97129.94;4946972;28;20051;-70
2023/07/17 07:42:25;;;;;;;5.25;2.00;;;;;;;33.34;34.94;97125.66;4938665;28;20049;-69
2023/07/17 07:44:50;;;;;;;5.20;2.15;;;;;;;33.67;34.84;97135.56;4945068;28;20074;-70
2023/07/17 07:47:15;;;;;;;7.07;2.03;;;;;;;34.23;33.32;97138.50;4937990;28;20393;-70
2023/07/17 07:49:41;;;;;;;7.38;2.22;;;;;;;33.60;32.98;97139.66;4936547;28;20083;-71
2023/07/17 07:52:06;;;;;;;7.22;1.98;;;;;;;33.63;34.74;97137.84;4921402;29;20051;-71
2023/07/17 07:54:32;;;;;;;5.03;1.70;;;;;;;34.10;33.61;97149.56;4925968;29;20047;-70
2023/07/17 07:56:58;;;;;;;7.13;2.38;;;;;;;33.53;35.19;97145.84;4925898;29;20044;-70
2023/07/17 07:59:23;;;;;;;6.43;2.33;;;;;;;33.06;35.32;97153.88;4905363;29;20936;-71
2023/07/17 08:01:49;;;;;;;5.57;2.20;;;;;;;34.01;33.47;97150.59;4927049;29;20043;-71
2023/07/17 08:04:14;;;;;;;4.43;1.83;;;;;;;33.74;33.99;97157.00;4920063;29;20163;-71
2023/07/17 08:06:39;;;;;;;5.70;2.10;;;;;;;32.47;35.46;97158.13;4925524;29;20154;-70
2023/07/17 08:09:05;;;;;;;7.60;2.08;;;;;;;31.68;37.54;97144.00;4904725;29;20106;-71
2023/07/17 08:11:30;;;;;;;5.18;2.00;;;;;;;31.57;38.25;97144.66;4925520;29;20071;-70
2023/07/17 08:13:55;;;;;;;6.05;2.33;;;;;;;31.91;37.85;97133.69;4923343;29;20047;-70
2023/07/17 08:16:21;;;;;;;4.05;2.00;;;;;;;31.92;37.64;97135.22;4903668;29;20453;-71
2023/07/17 08:18:46;;;;;;;8.55;2.20;;;;;;;31.27;38.21;97143.25;4915463;29;20186;-71
2023/07/17 08:21:12;;;;;;;6.55;2.25;;;;;;;31.25;37.62;97144.53;4939692;29;20039;-69
2023/07/17 08:23:37;;;;;;;6.68;2.40;;;;;;;30.79;39.25;97145.19;4944450;28;20043;-70
2023/07/17 08:26:04;;;;;;;4.05;2.00;;;;;;;31.25;38.60;97143.75;4942362;29;20043;-69
2023/07/17 08:28:30;;;;;;;5.88;2.38;;;;;;;31.27;37.81;97143.25;4943729;29;20209;-70
2023/07/17 08:30:55;;;;;;;5.10;2.38;;;;;;;30.84;37.79;97138.81;4964159;28;20141;-70
2023/07/17 08:33:21;;;;;;;4.60;2.17;;;;;;;30.80;38.00;97143.13;4957652;28;20961;-70
2023/07/17 08:35:46;;;;;;;6.70;2.58;;;;;;;30.57;37.35;97142.03;4962397;28;20488;-71
2023/07/17 08:38:13;;;;;;;6.03;2.58;;;;;;;30.88;36.23;97149.91;4954374;28;20102;-71
2023/07/17 08:40:40;;;;;;;4.28;2.20;;;;;;;30.74;37.08;97145.91;4944715;29;20051;-70
2023/07/17 08:43:07;;;;;;;7.22;2.85;;;;;;;30.68;38.67;97143.00;4955206;28;20073;-70
2023/07/17 08:45:33;;;;;;;8.52;2.17;;;;;;;31.13;37.65;97153.38;4944578;28;20039;-71
2023/07/17 08:48:00;;;;;;;11.30;2.53;;;;;;;31.34;37.98;97146.44;4962937;28;20074;-70
2023/07/17 08:50:26;;;;;;;5.20;2.40;;;;;;;31.67;36.62;97141.66;4942361;28;20167;-70
2023/07/17 08:52:52;;;;;;;7.15;2.65;;;;;;;31.11;38.64;97141.78;4944692;29;20047;-70
2023/07/17 08:55:18;;;;;;;4.88;2.45;;;;;;;30.56;39.71;97152.56;4939443;29;20062;-70
2023/07/17 08:57:46;;;;;;;6.28;2.40;;;;;;;30.14;40.52;97144.41;4943713;29;20043;-70
2023/07/17 09:00:15;;;;;;;4.70;2.42;;;;;;;30.17;39.77;97146.28;4955206;28;20050;-70
2023/07/17 09:02:42;;;;;;;5.60;2.58;;;;;;;29.92;40.72;97131.47;4962383;28;20043;-70
2023/07/17 09:05:07;;;;;;;6.20;2.53;;;;;;;30.22;39.30;97120.16;4957918;28;20073;-70
2023/07/17 09:07:33;;;;;;;8.55;2.80;;;;;;;30.67;39.68;97123.69;4967058;28;20047;-70
2023/07/17 09:10:19;;;;;;;10.90;2.65;;;;;;;30.16;39.91;97122.91;4966956;28;20046;-71
2023/07/17 09:12:55;;;;;;;6.45;2.80;;;;;;;29.27;41.57;97125.63;4975072;28;20046;-69
2023/07/17 09:15:21;;;;;;;8.27;3.00;;;;;;;30.14;40.44;97133.13;4958882;28;20054;-69
2023/07/17 09:17:46;;;;;;;7.40;2.45;;;;;;;29.87;40.91;97127.28;4962073;28;20053;-69
2023/07/17 09:20:14;;;;;;;7.78;2.63;;;;;;;30.58;40.18;97121.00;4957378;28;20407;-70
2023/07/17 09:22:41;;;;;;;5.45;2.42;;;;;;;31.63;38.73;97133.41;4962661;28;20035;-71
2023/07/17 09:25:08;;;;;;;6.38;2.78;;;;;;;31.74;38.17;97129.91;4957987;28;20042;-70
2023/07/17 09:28:00;;;;;;;7.03;2.53;;;;;;;30.57;39.13;97133.56;4961678;28;20057;-69
2023/07/17 09:30:26;;;;;;;10.18;3.03;;;;;;;30.40;38.60;97131.25;4954500;28;20119;-71
2023/07/17 09:32:52;;;;;;;8.18;3.13;;;;;;;30.78;38.92;97129.50;4969822;28;20038;-69
2023/07/17 09:35:20;;;;;;;6.78;2.70;;;;;;;30.60;38.98;97124.09;4969834;28;20065;-70
2023/07/17 09:37:46;;;;;;;5.85;2.70;;;;;;;30.58;39.18;97116.09;4985589;28;20042;-71
2023/07/17 09:40:13;;;;;;;6.18;2.80;;;;;;;30.67;37.03;97118.03;4980482;28;20042;-70
2023/07/17 09:42:41;;;;;;;5.72;2.83;;;;;;;31.64;35.21;97123.66;4984464;28;20129;-71
2023/07/17 09:45:08;;;;;;;6.57;2.88;;;;;;;30.57;37.44;97125.06;4980645;28;20035;-69
2023/07/17 09:47:38;;;;;;;6.45;2.90;;;;;;;30.40;38.64;97122.00;4968821;28;20081;-70
2023/07/17 09:50:15;;;;;;;6.57;2.90;;;;;;;29.60;38.73;97108.53;4971588;28;20050;-70
2023/07/17 09:52:45;;;;;;;14.80;3.20;;;;;;;30.73;37.73;97118.13;4964297;28;20112;-71
2023/07/17 09:55:10;;;;;;;5.40;2.97;;;;;;;30.80;38.46;97115.63;4961744;28;20085;-69
2023/07/17 09:57:38;;;;;;;5.72;2.67;;;;;;;30.76;38.96;97106.59;4966198;28;20046;-69
2023/07/17 10:00:17;;;;;;;7.40;2.97;;;;;;;30.61;38.62;97115.13;4945299;28;20066;-69
2023/07/17 10:03:23;;;;;;;6.80;2.90;;;;;;;30.85;37.18;97114.94;4947869;28;20440;-69
2023/07/17 10:05:50;;;;;;;7.60;3.15;;;;;;;31.02;37.25;97126.50;4904670;29;20036;-70
2023/07/17 10:08:17;;;;;;;5.30;2.67;;;;;;;31.19;37.33;97114.63;4900513;29;20043;-70
2023/07/17 10:10:43;;;;;;;6.43;2.88;;;;;;;31.41;36.80;97116.94;4917692;28;20101;-69
2023/07/17 10:13:10;;;;;;;5.88;3.20;;;;;;;31.43;36.18;97120.81;4960607;28;20042;-69
2023/07/17 10:15:37;;;;;;;5.00;3.00;;;;;;;31.20;36.58;97122.59;4965256;28;20528;-71
2023/07/17 10:18:07;;;;;;;7.82;3.25;;;;;;;30.74;37.49;97114.78;4961192;28;20047;-69
2023/07/17 10:20:32;;;;;;;8.13;3.20;;;;;;;31.00;37.34;97116.94;4945708;29;20035;-71
2023/07/17 10:22:57;;;;;;;6.43;2.92;;;;;;;30.44;37.00;97109.22;4949690;29;20496;-70
2023/07/17 10:25:28;;;;;;;4.90;2.55;;;;;;;30.05;38.21;97105.75;4943128;29;20059;-70
2023/07/17 10:27:57;;;;;;;7.45;2.78;;;;;;;30.30;36.88;97110.78;4947834;29;20451;-70
2023/07/17 10:30:25;;;;;;;9.35;3.35;;;;;;;28.30;39.49;97105.03;4929909;29;20063;-71
2023/07/17 10:33:19;;;;;;;10.88;3.08;;;;;;;29.58;38.70;97093.38;4953483;28;20583;-69
2023/07/17 10:35:47;;;;;;;9.35;3.05;;;;;;;29.64;36.53;97095.03;4958910;28;20078;-69
2023/07/17 10:38:15;;;;;;;6.35;2.80;;;;;;;29.72;36.57;97090.53;4960438;28;20043;-69
2023/07/17 10:40:40;;;;;;;6.45;2.97;;;;;;;30.05;37.56;97089.59;4964723;28;20525;-70
2023/07/17 10:43:17;;;;;;;8.35;3.03;;;;;;;29.25;36.27;97089.44;4957683;28;20046;-70
2023/07/17 10:45:43;;;;;;;7.55;3.13;;;;;;;29.04;39.32;97093.34;4965194;28;20089;-70
2023/07/17 10:48:10;;;;;;;6.65;2.70;;;;;;;29.66;38.90;97078.38;4957881;28;20039;-70
2023/07/17 10:50:35;;;;;;;4.55;2.47;;;;;;;29.80;36.47;97090.19;4948289;28;20110;-70
2023/07/17 10:53:05;;;;;;;8.18;3.38;;;;;;;29.64;36.37;97085.78;4945924;29;20043;-71
2023/07/17 10:55:32;;;;;;;6.72;3.45;;;;;;;29.16;37.92;97081.06;4945780;29;20050;-69
2023/07/17 10:57:58;;;;;;;8.35;3.47;;;;;;;29.70;38.08;97066.91;4945157;29;20605;-70
2023/07/17 11:00:24;;;;;;;8.63;2.88;;;;;;;30.13;36.75;97075.09;4922993;29;20052;-71
2023/07/17 11:02:49;;;;;;;6.03;3.03;;;;;;;30.45;35.87;97090.22;4925310;29;20063;-69
2023/07/17 11:05:15;;;;;;;7.15;2.85;;;;;;;30.61;34.01;97084.03;4919115;29;20043;-69
2023/07/17 11:07:40;;;;;;;6.55;3.13;;;;;;;29.94;37.09;97069.63;4927207;29;20557;-70
2023/07/17 11:10:13;;;;;;;8.43;4.45;;;;;;;30.02;36.57;97076.44;4920935;29;20047;-69
2023/07/17 11:12:39;;;;;;;6.28;2.72;;;;;;;30.10;36.57;97065.53;4926240;29;20051;-69
2023/07/17 11:15:13;;;;;;;6.00;3.05;;;;;;;30.13;36.74;97067.38;4920587;29;20040;-70
2023/07/17 11:17:38;;;;;;;8.55;2.78;;;;;;;30.26;36.53;97067.06;4925756;29;20445;-69
2023/07/17 11:20:04;;;;;;;8.85;3.58;;;;;;;30.28;37.04;97068.09;4918778;29;20048;-69
2023/07/17 11:22:31;;;;;;;6.57;2.90;;;;;;;30.44;36.25;97068.88;4925711;29;20199;-69
2023/07/17 11:24:56;;;;;;;7.07;2.78;;;;;;;30.88;36.35;97068.72;4925962;29;20110;-70